createdAt,value
2018-10-01T00:03:36.542Z,7.73
2018-10-01T00:08:39.730Z,8.00
2018-10-01T00:13:42.929Z,7.97
2018-10-01T00:18:46.077Z,8.33
2018-10-01T00:23:49.144Z,7.27
2018-10-01T00:28:52.307Z,7.70
2018-10-01T00:33:55.408Z,7.53
2018-10-01T00:38:58.563Z,7.67
2018-10-01T00:44:01.740Z,7.37
2018-10-01T00:49:05.312Z,7.23
2018-10-01T00:54:08.513Z,7.80
2018-10-01T00:59:11.612Z,5.80
2018-10-01T01:04:14.835Z,7.10
2018-10-01T01:09:17.925Z,6.93
2018-10-01T01:14:21.035Z,7.00
2018-10-01T01:19:24.263Z,6.30
2018-10-01T01:24:27.408Z,6.83
2018-10-01T01:29:30.596Z,6.10
2018-10-01T01:34:33.687Z,6.73
2018-10-01T01:39:36.815Z,6.67
2018-10-01T01:44:39.984Z,7.83
2018-10-01T01:49:43.059Z,7.30
2018-10-01T01:54:46.110Z,6.57
2018-10-01T01:59:49.179Z,6.77
2018-10-01T02:04:52.268Z,6.50
2018-10-01T02:09:55.323Z,6.50
2018-10-01T02:14:58.407Z,6.77
2018-10-01T02:20:01.528Z,6.30
2018-10-01T02:25:04.803Z,7.20
2018-10-01T02:30:08.016Z,7.40
2018-10-01T02:35:11.157Z,7.77
2018-10-01T02:40:14.360Z,5.90
2018-10-01T02:45:17.875Z,6.23
2018-10-01T02:50:21.811Z,7.37
2018-10-01T02:55:24.888Z,5.90
2018-10-01T03:00:28.004Z,6.30
2018-10-01T03:05:31.223Z,5.87
2018-10-01T03:10:34.659Z,6.30
2018-10-01T03:15:38.048Z,6.13
2018-10-01T03:20:41.527Z,6.00
2018-10-01T03:25:51.363Z,5.80
2018-10-01T03:30:54.854Z,4.80
2018-10-01T03:35:58.278Z,4.40
2018-10-01T03:41:01.696Z,4.03
2018-10-01T03:46:05.082Z,4.63
2018-10-01T03:51:08.617Z,4.33
2018-10-01T03:56:11.985Z,4.43
2018-10-01T04:01:15.356Z,3.87
2018-10-01T04:06:18.735Z,3.47
2018-10-01T04:11:22.065Z,4.87
2018-10-01T04:16:25.481Z,4.40
2018-10-01T04:21:28.612Z,4.33
2018-10-01T04:26:31.707Z,4.10
2018-10-01T04:31:34.868Z,3.83
2018-10-01T04:36:37.935Z,3.60
2018-10-01T04:41:41.526Z,3.77
2018-10-01T04:46:44.681Z,3.60
2018-10-01T04:51:47.790Z,5.57
2018-10-01T04:56:50.972Z,3.10
2018-10-01T05:01:54.149Z,3.07
2018-10-01T05:06:57.256Z,2.53
2018-10-01T05:12:00.708Z,2.70
2018-10-01T05:17:03.824Z,2.70
2018-10-01T05:22:07.037Z,2.57
2018-10-01T05:27:10.222Z,2.20
2018-10-01T05:32:13.323Z,1.87
2018-10-01T05:37:16.378Z,2.53
2018-10-01T05:42:19.456Z,2.83
2018-10-01T05:47:22.520Z,1.40
2018-10-01T05:52:25.645Z,1.60
2018-10-01T05:57:28.767Z,1.93
2018-10-01T06:02:31.917Z,2.30
2018-10-01T06:07:35.009Z,2.27
2018-10-01T06:12:38.107Z,2.23
2018-10-01T06:17:41.216Z,1.57
2018-10-01T06:22:44.306Z,2.80
2018-10-01T06:27:47.406Z,1.73
2018-10-01T06:32:50.515Z,2.60
2018-10-01T06:37:53.601Z,7.30
2018-10-01T06:42:56.717Z,3.10
2018-10-01T06:47:59.854Z,2.30
2018-10-01T06:53:02.942Z,1.90
2018-10-01T06:58:06.227Z,1.70
2018-10-01T07:14:13.015Z,1.43
2018-10-01T07:19:16.083Z,1.73
2018-10-01T07:24:19.139Z,1.83
2018-10-01T07:29:22.215Z,2.40
2018-10-01T07:34:25.312Z,3.47
2018-10-01T07:39:28.408Z,2.10
2018-10-01T07:44:31.471Z,2.23
2018-10-01T07:49:34.550Z,1.87
2018-10-01T07:54:37.622Z,1.50
2018-10-01T07:59:40.768Z,1.73
2018-10-01T08:04:43.767Z,2.63
2018-10-01T08:09:46.820Z,1.60
2018-10-01T08:14:49.887Z,1.30
2018-10-01T08:19:52.962Z,2.50
2018-10-01T08:24:56.095Z,1.73
2018-10-01T08:29:59.397Z,1.70
2018-10-01T08:35:02.335Z,2.67
2018-10-01T08:40:05.870Z,1.40
2018-10-01T08:45:08.963Z,1.90
2018-10-01T08:50:16.118Z,2.20
2018-10-01T08:55:19.675Z,1.53
2018-10-01T09:00:22.756Z,1.60
2018-10-01T09:05:25.859Z,8.73
2018-10-01T09:10:28.936Z,1.13
2018-10-01T09:15:32.063Z,1.27
2018-10-01T09:20:35.174Z,0.97
2018-10-01T09:25:38.206Z,1.33
2018-10-01T09:30:41.269Z,4.83
2018-10-01T09:35:44.375Z,1.67
2018-10-01T09:40:47.471Z,1.23
2018-10-01T09:45:50.588Z,1.23
2018-10-01T09:50:53.687Z,1.83
2018-10-01T09:55:56.822Z,0.70
2018-10-01T10:01:05.439Z,1.40
2018-10-01T10:06:08.686Z,20.83
2018-10-01T10:11:11.758Z,1.10
2018-10-01T10:16:14.936Z,1.30
2018-10-01T10:21:17.991Z,0.70
2018-10-01T10:26:21.108Z,0.60
2018-10-01T10:31:24.133Z,1.10
2018-10-01T10:36:27.624Z,0.80
2018-10-01T10:41:31.607Z,0.70
2018-10-01T10:46:35.651Z,0.80
2018-10-01T10:51:39.399Z,0.80
2018-10-01T10:56:43.868Z,0.80
2018-10-01T11:01:47.732Z,0.80
2018-10-01T11:06:51.778Z,0.80
2018-10-01T11:11:54.883Z,0.70
2018-10-01T11:16:57.987Z,0.73
2018-10-01T11:22:01.084Z,0.80
2018-10-01T11:27:04.264Z,0.60
2018-10-01T11:32:07.441Z,0.57
2018-10-01T11:37:10.584Z,0.50
2018-10-01T11:42:13.704Z,0.63
2018-10-01T11:47:16.792Z,0.53
2018-10-01T11:52:19.877Z,0.50
2018-10-01T11:57:23.087Z,0.50
2018-10-01T12:02:26.296Z,0.50
2018-10-01T12:07:29.402Z,0.40
2018-10-01T12:12:32.463Z,0.60
2018-10-01T12:17:35.557Z,0.90
2018-10-01T12:22:38.689Z,0.50
2018-10-01T12:27:42.029Z,0.40
2018-10-01T12:32:44.928Z,0.40
2018-10-01T12:37:48.059Z,0.50
2018-10-01T12:42:51.321Z,0.60
2018-10-01T12:47:54.512Z,0.50
2018-10-01T12:52:57.581Z,0.80
2018-10-01T12:58:00.605Z,0.50
2018-10-01T13:03:03.689Z,0.40
2018-10-01T13:08:06.770Z,3.30
2018-10-01T13:13:09.911Z,0.60
2018-10-01T13:18:13.094Z,0.60
2018-10-01T13:23:16.180Z,0.53
2018-10-01T13:28:19.277Z,1.00
2018-10-01T13:33:22.404Z,1.07
2018-10-01T13:38:25.584Z,0.77
2018-10-01T13:43:28.672Z,1.10
2018-10-01T13:48:31.778Z,0.67
2018-10-01T13:53:34.889Z,0.70
2018-10-01T13:58:37.996Z,1.20
2018-10-01T14:03:41.080Z,0.60
2018-10-01T14:08:44.175Z,1.07
2018-10-01T14:13:47.551Z,0.70
2018-10-01T14:18:50.979Z,0.90
2018-10-01T14:23:54.529Z,0.60
2018-10-01T14:28:57.691Z,0.60
2018-10-01T14:34:00.862Z,1.03
2018-10-01T14:39:05.418Z,0.70
2018-10-01T14:44:09.411Z,0.50
2018-10-01T14:49:12.719Z,0.60
2018-10-01T14:54:16.458Z,1.03
2018-10-01T14:59:19.875Z,0.67
2018-10-01T15:04:23.226Z,1.10
2018-10-01T15:09:26.660Z,0.80
2018-10-01T15:14:29.999Z,0.93
2018-10-01T15:19:33.605Z,0.80
2018-10-01T15:24:37.210Z,0.93
2018-10-01T15:29:40.487Z,0.70
2018-10-01T15:34:43.832Z,1.20
2018-10-01T15:39:47.635Z,0.60
2018-10-01T15:44:52.427Z,0.97
2018-10-01T15:49:55.565Z,0.50
2018-10-01T15:54:58.792Z,0.53
2018-10-01T16:00:02.022Z,0.70
2018-10-01T16:05:05.723Z,0.60
2018-10-01T16:10:08.931Z,1.27
2018-10-01T16:15:12.136Z,0.63
2018-10-01T16:20:15.241Z,0.80
2018-10-01T16:25:19.380Z,1.10
2018-10-01T16:30:22.537Z,0.80
2018-10-01T16:35:25.707Z,1.00
2018-10-01T16:40:28.925Z,1.20
2018-10-01T16:45:32.019Z,0.60
2018-10-01T16:50:35.193Z,1.10
2018-10-01T16:55:38.312Z,0.60
2018-10-01T17:00:41.455Z,1.47
2018-10-01T17:05:44.576Z,2.07
2018-10-01T17:10:47.670Z,0.80
2018-10-01T17:15:51.086Z,0.70
2018-10-01T17:20:54.464Z,0.70
2018-10-01T17:25:57.573Z,1.00
2018-10-01T17:31:00.709Z,4.20
2018-10-01T17:36:03.912Z,3.20
2018-10-01T17:41:07.360Z,0.90
2018-10-01T17:46:10.639Z,1.07
2018-10-01T17:51:13.866Z,0.80
2018-10-01T17:56:17.015Z,0.70
2018-10-01T18:01:20.092Z,0.97
2018-10-01T18:06:23.344Z,0.77
2018-10-01T18:11:26.493Z,0.90
2018-10-01T18:16:30.588Z,0.80
2018-10-01T18:21:33.821Z,1.07
2018-10-01T18:26:36.919Z,0.70
2018-10-01T18:31:40.057Z,0.60
2018-10-01T18:36:43.277Z,1.23
2018-10-01T18:41:47.686Z,6.30
2018-10-01T18:46:51.025Z,0.90
2018-10-01T18:51:54.172Z,0.93
2018-10-01T18:56:57.261Z,0.77
2018-10-01T19:02:00.392Z,1.17
2018-10-01T19:07:03.702Z,1.10
2018-10-01T19:12:06.853Z,0.80
2018-10-01T19:17:09.952Z,0.90
2018-10-01T19:22:13.109Z,0.80
2018-10-01T19:27:16.324Z,0.70
2018-10-01T19:32:19.364Z,0.90
2018-10-01T19:37:22.482Z,1.10
2018-10-01T19:42:25.598Z,1.00
2018-10-01T19:47:28.691Z,0.80
2018-10-01T19:52:31.783Z,1.47
2018-10-01T19:57:35.992Z,1.43
2018-10-01T20:02:39.117Z,0.90
2018-10-01T20:07:42.191Z,1.10
2018-10-01T20:12:45.247Z,0.80
2018-10-01T20:17:48.592Z,0.90
2018-10-01T20:22:51.694Z,0.83
2018-10-01T20:27:54.842Z,0.80
2018-10-01T20:32:57.851Z,1.13
2018-10-01T20:38:01.007Z,1.27
2018-10-01T20:43:05.859Z,0.73
2018-10-01T20:48:09.016Z,1.30
2018-10-01T20:53:12.166Z,0.80
2018-10-01T20:58:15.268Z,1.53
2018-10-01T21:03:18.362Z,1.07
2018-10-01T21:08:21.491Z,1.00
2018-10-01T21:13:24.620Z,0.73
2018-10-01T21:18:27.742Z,0.90
2018-10-01T21:23:30.819Z,0.90
2018-10-01T21:28:33.881Z,0.70
2018-10-01T21:33:36.932Z,0.83
2018-10-01T21:38:42.713Z,0.70
2018-10-01T21:43:45.838Z,0.80
2018-10-01T21:48:48.939Z,0.90
2018-10-01T21:53:52.020Z,1.10
2018-10-01T21:58:55.099Z,0.90
2018-10-01T22:03:58.204Z,0.90
2018-10-01T22:09:01.299Z,1.13
2018-10-01T22:14:04.865Z,1.23
2018-10-01T22:19:07.927Z,1.00
2018-10-01T22:24:11.065Z,0.60
2018-10-01T22:29:14.169Z,1.00
2018-10-01T22:34:17.255Z,0.90
2018-10-01T22:39:20.336Z,1.10
2018-10-01T22:44:23.422Z,1.00
2018-10-01T22:49:26.523Z,0.87
2018-10-01T22:54:29.603Z,1.53
2018-10-01T22:59:32.715Z,0.83
2018-10-01T23:04:35.799Z,1.00
2018-10-01T23:09:38.955Z,0.90
2018-10-01T23:14:42.036Z,0.90
2018-10-01T23:19:45.168Z,1.13
2018-10-01T23:24:48.283Z,1.30
2018-10-01T23:29:51.389Z,0.83
2018-10-01T23:34:54.495Z,1.43
2018-10-01T23:39:57.570Z,1.00
2018-10-01T23:45:00.635Z,1.07
2018-10-01T23:50:03.891Z,1.37
2018-10-01T23:55:07.147Z,1.13
